This is the latest recevied weather packets stored in our database for station/object N3TJJ-11. If no packets are shown the sender has not sent any weather packets the latest 10 day(s).
| Time | Temp. | Humidity | Pressure | Rain* | Wind** | Luminosity | Snow |
|---|---|---|---|---|---|---|---|
| 1777761350 | 10.56° C | 48% | 1010.3 hPa | 0 mm | - | - | - |
| 1777761237 | 10.56° C | 48% | 1010.3 hPa | 0 mm | - | - | - |
| 1777760630 | 10.56° C | 48% | 1010.4 hPa | 0 mm | - | - | - |
| 1777760031 | 11.11° C | 46% | 1010.4 hPa | 0 mm | - | - | - |
| 1777759910 | 11.11° C | 46% | 1010.3 hPa | 0 mm | - | - | - |
| 1777759431 | 11.11° C | 47% | 1010.3 hPa | 0 mm | - | - | - |
| 1777759190 | 11.11° C | 46% | 1010.3 hPa | 0 mm | - | - | - |
| 1777758831 | 11.11° C | 46% | 1010.3 hPa | 0 mm | - | - | - |
| 1777758470 | 11.11° C | 48% | 1010.3 hPa | 0 mm | - | - | - |
| 1777758239 | 11.11° C | 45% | 1010.2 hPa | 0 mm | - | - | - |
| 1777757750 | 11.11° C | 47% | 1010.2 hPa | 0 mm | - | - | - |
| 1777757632 | 11.11° C | 46% | 1010.3 hPa | 0 mm | - | - | - |
| 1777757030 | 11.67° C | 45% | 1010.1 hPa | 0 mm | - | - | - |
| 1777756432 | 12.22° C | 45% | 1009.9 hPa | 0 mm | - | - | - |
| 1777756310 | 12.22° C | 45% | 1009.8 hPa | 0 mm | - | - | - |
| 1777755831 | 11.67° C | 45% | 1009.8 hPa | 0 mm | - | - | - |
| 1777755590 | 11.67° C | 43% | 1009.8 hPa | 0 mm | - | - | - |
| 1777755231 | 11.67° C | 45% | 1009.8 hPa | 0 mm | - | - | - |
| 1777754870 | 11.67° C | 44% | 1009.7 hPa | 0 mm | - | - | - |
| 1777754631 | 11.67° C | 45% | 1009.8 hPa | 0 mm | - | - | - |
| 1777754150 | 11.11° C | 47% | 1009.9 hPa | 0 mm | - | - | - |
| 1777754032 | 11.11° C | 47% | 1009.8 hPa | 0 mm | - | - | - |
| 1777753518 | 11.67° C | 45% | 1009.9 hPa | 0 mm | - | - | - |
| 1777753430 | 11.67° C | 45% | 1009.9 hPa | 0 mm | - | - | - |
| 1777752956 | 12.22° C | 41% | 1009.9 hPa | 0 mm | - | - | - |
* Rain latest hour (hover to see other rain measurements)
** Current wind speed in m/s (hover to see current wind gust speed)